createdAt,value
2018-03-28T00:00:48.658Z,28.05
2018-03-28T00:01:48.649Z,28.08
2018-03-28T00:02:48.734Z,28.06
2018-03-28T00:03:48.634Z,27.99
2018-03-28T00:04:48.562Z,27.86
2018-03-28T00:05:49.056Z,27.93
2018-03-28T00:06:48.584Z,27.80
2018-03-28T00:07:48.576Z,27.79
2018-03-28T00:08:48.483Z,27.75
2018-03-28T00:09:48.446Z,27.76
2018-03-28T00:10:48.405Z,27.62
2018-03-28T00:11:48.417Z,27.65
2018-03-28T00:12:48.405Z,27.71
2018-03-28T00:13:48.524Z,27.59
2018-03-28T00:14:48.432Z,27.52
2018-03-28T00:15:48.296Z,27.51
2018-03-28T00:16:48.279Z,27.53
2018-03-28T00:17:48.270Z,27.49
2018-03-28T00:18:48.259Z,27.45
2018-03-28T00:19:48.363Z,27.42
2018-03-28T00:20:48.716Z,27.51
2018-03-28T00:21:48.170Z,27.42
2018-03-28T00:22:48.174Z,27.34
2018-03-28T00:23:48.177Z,27.31
2018-03-28T00:24:48.708Z,27.18
2018-03-28T00:25:48.108Z,27.21
2018-03-28T00:26:48.063Z,27.30
2018-03-28T00:27:48.011Z,27.28
2018-03-28T00:28:48.000Z,27.21
2018-03-28T00:29:48.159Z,27.21
2018-03-28T00:30:47.980Z,27.16
2018-03-28T00:31:47.960Z,27.19
2018-03-28T00:32:48.261Z,27.08
2018-03-28T00:33:47.894Z,27.13
2018-03-28T00:34:48.225Z,27.08
2018-03-28T00:35:47.839Z,27.06
2018-03-28T00:36:47.836Z,27.00
2018-03-28T00:37:48.321Z,26.96
2018-03-28T00:38:47.756Z,26.93
2018-03-28T00:39:47.833Z,26.96
2018-03-28T00:40:48.338Z,26.93
2018-03-28T00:41:47.701Z,26.78
2018-03-28T00:42:47.648Z,26.79
2018-03-28T00:43:47.643Z,26.82
2018-03-28T00:44:48.314Z,26.94
2018-03-28T00:45:48.145Z,26.81
2018-03-28T00:46:47.558Z,26.86
2018-03-28T00:47:48.074Z,26.86
2018-03-28T00:48:48.181Z,26.89
2018-03-28T00:49:47.595Z,26.87
2018-03-28T00:50:47.457Z,26.74
2018-03-28T00:51:47.465Z,26.79
2018-03-28T00:52:47.416Z,26.74
2018-03-28T00:53:47.941Z,26.79
2018-03-28T00:54:47.352Z,26.72
2018-03-28T00:55:47.435Z,26.71
2018-03-28T00:56:47.924Z,26.64
2018-03-28T00:57:47.291Z,26.61
2018-03-28T00:58:47.416Z,26.68
2018-03-28T00:59:47.818Z,26.71
2018-03-28T01:00:48.007Z,26.63
2018-03-28T01:01:47.228Z,26.54
2018-03-28T01:02:47.292Z,26.53
2018-03-28T01:03:47.979Z,26.52
2018-03-28T01:04:47.181Z,26.50
2018-03-28T01:05:47.300Z,26.56
2018-03-28T01:06:47.209Z,26.52
2018-03-28T01:07:47.183Z,26.49
2018-03-28T01:08:47.139Z,26.52
2018-03-28T01:09:47.552Z,26.59
2018-03-28T01:10:47.469Z,26.50
2018-03-28T01:11:47.088Z,26.45
2018-03-28T01:12:47.089Z,26.30
2018-03-28T01:13:47.566Z,26.39
2018-03-28T01:14:46.920Z,26.32
2018-03-28T01:15:47.677Z,26.34
2018-03-28T01:16:46.793Z,26.35
2018-03-28T01:17:46.793Z,26.24
2018-03-28T01:18:47.199Z,26.24
2018-03-28T01:19:46.786Z,26.16
2018-03-28T01:20:46.859Z,26.23
2018-03-28T01:21:47.240Z,26.11
2018-03-28T01:22:47.264Z,26.00
2018-03-28T01:23:46.705Z,26.03
2018-03-28T01:24:46.614Z,26.04
2018-03-28T01:25:47.278Z,26.06
2018-03-28T01:26:46.558Z,25.94
2018-03-28T01:27:46.583Z,26.06
2018-03-28T01:28:46.616Z,26.01
2018-03-28T01:29:46.547Z,26.01
2018-03-28T01:30:47.012Z,26.06
2018-03-28T01:31:47.066Z,25.93
2018-03-28T01:32:47.382Z,25.96
2018-03-28T01:33:46.983Z,25.93
2018-03-28T01:34:46.936Z,25.89
2018-03-28T01:35:46.894Z,25.85
2018-03-28T01:36:46.871Z,25.85
2018-03-28T01:37:47.048Z,25.88
2018-03-28T01:38:46.350Z,25.84
2018-03-28T01:39:46.858Z,25.79
2018-03-28T01:40:46.290Z,25.84
2018-03-28T01:41:46.335Z,25.75
2018-03-28T01:42:46.982Z,25.82
2018-03-28T01:43:46.231Z,25.70
2018-03-28T01:44:46.966Z,25.71
2018-03-28T01:45:46.233Z,25.74
2018-03-28T01:46:46.652Z,25.71
2018-03-28T01:47:46.821Z,25.63
2018-03-28T01:48:46.093Z,25.67
2018-03-28T01:49:46.025Z,25.74
2018-03-28T01:50:46.520Z,25.66
2018-03-28T01:51:46.015Z,25.66
2018-03-28T01:52:46.745Z,25.70
2018-03-28T01:53:45.918Z,25.60
2018-03-28T01:54:45.910Z,25.56
2018-03-28T01:55:46.502Z,25.56
2018-03-28T01:56:45.823Z,25.54
2018-03-28T01:57:46.550Z,25.51
2018-03-28T01:58:46.397Z,25.59
2018-03-28T01:59:45.779Z,25.44
2018-03-28T02:00:45.766Z,25.56
2018-03-28T02:01:45.731Z,25.52
2018-03-28T02:02:46.362Z,25.57
2018-03-28T02:03:46.056Z,25.47
2018-03-28T02:04:45.720Z,25.38
2018-03-28T02:05:46.266Z,25.37
2018-03-28T02:06:46.293Z,25.44
2018-03-28T02:07:45.589Z,25.41
2018-03-28T02:08:45.659Z,25.49
2018-03-28T02:09:45.497Z,25.44
2018-03-28T02:10:45.956Z,25.34
2018-03-28T02:11:45.984Z,25.33
2018-03-28T02:12:46.025Z,25.33
2018-03-28T02:13:45.409Z,25.42
2018-03-28T02:14:45.462Z,25.41
2018-03-28T02:15:45.843Z,25.45
2018-03-28T02:16:45.837Z,25.38
2018-03-28T02:17:45.781Z,25.26
2018-03-28T02:18:45.766Z,25.26
2018-03-28T02:19:45.955Z,25.29
2018-03-28T02:20:45.721Z,25.30
2018-03-28T02:21:45.807Z,25.26
2018-03-28T02:22:45.737Z,25.17
2018-03-28T02:23:45.125Z,25.19
2018-03-28T02:24:45.734Z,25.14
2018-03-28T02:25:45.589Z,25.11
2018-03-28T02:26:45.664Z,25.02
2018-03-28T02:27:45.625Z,25.01
2018-03-28T02:28:45.736Z,25.04
2018-03-28T02:29:46.075Z,25.02
2018-03-28T02:30:45.251Z,25.00
2018-03-28T02:31:44.918Z,25.01
2018-03-28T02:32:44.914Z,25.04
2018-03-28T02:33:45.404Z,25.00
2018-03-28T02:34:44.978Z,25.00
2018-03-28T02:35:44.838Z,24.92
2018-03-28T02:36:44.794Z,25.00
2018-03-28T02:37:45.331Z,24.96
2018-03-28T02:38:45.351Z,25.00
2018-03-28T02:39:44.794Z,25.05
2018-03-28T02:40:44.698Z,25.00
2018-03-28T02:41:44.721Z,24.96
2018-03-28T02:42:44.689Z,24.93
2018-03-28T02:43:45.176Z,24.93
2018-03-28T02:44:44.615Z,24.85
2018-03-28T02:45:45.181Z,24.82
2018-03-28T02:46:45.089Z,24.82
2018-03-28T02:47:45.166Z,24.77
2018-03-28T02:48:45.143Z,24.82
2018-03-28T02:49:45.048Z,24.80
2018-03-28T02:50:44.957Z,24.80
2018-03-28T02:51:45.169Z,24.80
2018-03-28T02:52:44.409Z,24.86
2018-03-28T02:53:44.995Z,24.78
2018-03-28T02:54:44.989Z,24.78
2018-03-28T02:55:44.922Z,24.83
2018-03-28T02:56:44.869Z,24.80
2018-03-28T02:57:44.361Z,24.82
2018-03-28T02:58:45.146Z,24.80
2018-03-28T02:59:44.991Z,24.85
2018-03-28T03:00:44.213Z,24.78
2018-03-28T03:01:44.672Z,24.70
2018-03-28T03:02:44.703Z,24.78
2018-03-28T03:03:44.650Z,24.80
2018-03-28T03:04:44.651Z,24.71
2018-03-28T03:05:44.055Z,24.71
2018-03-28T03:06:44.012Z,24.83
2018-03-28T03:07:44.633Z,24.92
2018-03-28T03:08:43.977Z,24.92
2018-03-28T03:09:43.921Z,24.92
2018-03-28T03:10:43.923Z,24.78
2018-03-28T03:11:43.932Z,24.80
2018-03-28T03:12:43.928Z,24.80
2018-03-28T03:13:44.371Z,24.82
2018-03-28T03:14:44.230Z,24.75
2018-03-28T03:15:43.777Z,24.69
2018-03-28T03:16:44.306Z,24.70
2018-03-28T03:17:44.472Z,24.61
2018-03-28T03:18:43.807Z,24.67
2018-03-28T03:19:44.316Z,24.64
2018-03-28T03:20:44.202Z,24.75
2018-03-28T03:21:44.203Z,24.75
2018-03-28T03:22:44.132Z,24.78
2018-03-28T03:23:43.696Z,24.75
2018-03-28T03:24:44.113Z,24.75
2018-03-28T03:25:43.564Z,24.69
2018-03-28T03:26:44.029Z,24.71
2018-03-28T03:27:43.477Z,24.63
2018-03-28T03:28:43.475Z,24.70
2018-03-28T03:29:43.510Z,24.66
2018-03-28T03:30:43.827Z,24.59
2018-03-28T03:31:43.371Z,24.67
2018-03-28T03:32:43.968Z,24.64
2018-03-28T03:33:43.840Z,24.64
2018-03-28T03:34:43.867Z,24.51
2018-03-28T03:35:43.365Z,24.49
2018-03-28T03:36:43.741Z,24.56
2018-03-28T03:37:43.709Z,24.51
2018-03-28T03:38:43.720Z,24.49
2018-03-28T03:39:43.139Z,24.49
2018-03-28T03:40:43.218Z,24.37
2018-03-28T03:41:43.653Z,24.52
2018-03-28T03:42:43.629Z,24.49
2018-03-28T03:43:43.594Z,24.46
2018-03-28T03:44:43.008Z,24.40
2018-03-28T03:45:43.076Z,24.44
2018-03-28T03:46:43.675Z,24.40
2018-03-28T03:47:43.434Z,24.42
2018-03-28T03:48:43.453Z,24.40
2018-03-28T03:49:43.393Z,24.45
2018-03-28T03:50:42.925Z,24.49
2018-03-28T03:51:42.940Z,24.59
2018-03-28T03:52:43.252Z,24.64
2018-03-28T03:53:43.368Z,24.71
2018-03-28T03:54:43.263Z,24.75
2018-03-28T03:55:42.732Z,24.75
2018-03-28T03:56:42.730Z,24.82
2018-03-28T03:57:42.765Z,24.77
2018-03-28T03:58:43.167Z,24.77
2018-03-28T03:59:43.130Z,24.77
2018-03-28T04:00:42.561Z,24.80
2018-03-28T04:01:42.561Z,24.78
2018-03-28T04:02:43.163Z,24.90
2018-03-28T04:03:42.917Z,24.92
2018-03-28T04:04:43.033Z,25.02
2018-03-28T04:05:42.438Z,25.04
2018-03-28T04:06:42.937Z,25.04
2018-03-28T04:07:42.909Z,25.00
2018-03-28T04:08:43.049Z,24.96
2018-03-28T04:09:42.868Z,24.90
2018-03-28T04:10:42.318Z,24.97
2018-03-28T04:11:43.109Z,24.92
2018-03-28T04:12:42.238Z,24.90
2018-03-28T04:13:42.757Z,24.94
2018-03-28T04:14:42.721Z,24.89
2018-03-28T04:15:42.188Z,24.92
2018-03-28T04:16:42.143Z,24.93
2018-03-28T04:17:42.692Z,24.87
2018-03-28T04:18:42.737Z,24.90
2018-03-28T04:19:42.061Z,24.87
2018-03-28T04:20:42.572Z,24.93
2018-03-28T04:21:42.008Z,24.89
2018-03-28T04:22:42.716Z,24.94
2018-03-28T04:23:42.049Z,24.75
2018-03-28T04:24:41.940Z,24.78
2018-03-28T04:25:41.894Z,24.74
2018-03-28T04:26:41.870Z,24.78
2018-03-28T04:27:42.374Z,24.69
2018-03-28T04:28:41.895Z,24.75
2018-03-28T04:29:42.384Z,24.63
2018-03-28T04:30:41.798Z,24.61
2018-03-28T04:31:41.764Z,24.74
2018-03-28T04:32:41.696Z,24.61
2018-03-28T04:33:42.583Z,24.59
2018-03-28T04:34:42.742Z,24.58
2018-03-28T04:35:41.631Z,24.54
2018-03-28T04:36:41.617Z,24.49
2018-03-28T04:37:41.592Z,24.49
2018-03-28T04:38:41.547Z,24.46
2018-03-28T04:39:41.835Z,24.56
2018-03-28T04:40:41.495Z,24.56
2018-03-28T04:41:41.476Z,24.44
2018-03-28T04:42:41.451Z,24.51
2018-03-28T04:43:42.012Z,24.44
2018-03-28T04:44:41.394Z,24.44
2018-03-28T04:45:42.009Z,24.39
2018-03-28T04:46:41.352Z,24.45
2018-03-28T04:47:41.849Z,24.37
2018-03-28T04:48:41.302Z,24.33
2018-03-28T04:49:41.320Z,24.18
2018-03-28T04:50:41.333Z,24.22
2018-03-28T04:51:41.203Z,24.22
2018-03-28T04:52:41.172Z,24.09
2018-03-28T04:53:41.145Z,24.11
2018-03-28T04:54:41.159Z,24.12
2018-03-28T04:55:41.196Z,24.12
2018-03-28T04:56:41.080Z,24.11
2018-03-28T04:57:41.034Z,23.96
2018-03-28T04:58:41.013Z,23.97
2018-03-28T04:59:41.008Z,23.97
2018-03-28T05:00:41.568Z,23.87
2018-03-28T05:01:41.589Z,23.82
2018-03-28T05:02:40.898Z,23.93
2018-03-28T05:03:40.868Z,24.02
2018-03-28T05:04:40.882Z,23.96
2018-03-28T05:05:40.830Z,24.00
2018-03-28T05:06:40.906Z,24.07
2018-03-28T05:07:40.773Z,24.02
2018-03-28T05:08:40.753Z,24.15
2018-03-28T05:09:40.751Z,24.19
2018-03-28T05:10:40.720Z,24.26
2018-03-28T05:11:40.760Z,24.17
2018-03-28T05:12:40.639Z,24.24
2018-03-28T05:13:40.609Z,24.32
2018-03-28T05:14:40.641Z,24.29
2018-03-28T05:15:40.600Z,24.33
2018-03-28T05:16:40.635Z,24.24
2018-03-28T05:17:40.506Z,24.42
2018-03-28T05:18:40.705Z,24.44
2018-03-28T05:19:40.484Z,24.51
2018-03-28T05:20:40.489Z,24.46
2018-03-28T05:21:40.390Z,24.52
2018-03-28T05:22:40.506Z,24.61
2018-03-28T05:23:40.343Z,24.64
2018-03-28T05:24:40.346Z,24.70
2018-03-28T05:25:40.301Z,24.78
2018-03-28T05:26:40.264Z,24.78
2018-03-28T05:27:40.313Z,24.87
2018-03-28T05:28:40.209Z,24.96
2018-03-28T05:29:40.192Z,25.00
2018-03-28T05:30:40.158Z,25.15
2018-03-28T05:31:40.123Z,25.14
2018-03-28T05:32:40.123Z,25.24
2018-03-28T05:33:40.180Z,25.44
2018-03-28T05:34:40.052Z,25.39
2018-03-28T05:35:40.073Z,25.45
2018-03-28T05:36:40.207Z,25.34
2018-03-28T05:37:40.185Z,25.26
2018-03-28T05:38:40.112Z,25.32
2018-03-28T05:39:40.271Z,25.32
2018-03-28T05:40:40.100Z,25.27
2018-03-28T05:41:39.882Z,25.30
2018-03-28T05:42:39.932Z,25.15
2018-03-28T05:43:39.985Z,25.11
2018-03-28T05:44:40.161Z,25.11
2018-03-28T05:45:39.805Z,25.11
2018-03-28T05:46:39.712Z,25.08
2018-03-28T05:47:39.687Z,25.14
2018-03-28T05:48:39.677Z,25.01
2018-03-28T05:49:39.757Z,25.08
2018-03-28T05:50:39.608Z,25.11
2018-03-28T05:51:39.625Z,25.01
2018-03-28T05:52:39.567Z,25.02
2018-03-28T05:53:39.538Z,25.02
2018-03-28T05:54:39.590Z,24.92
2018-03-28T05:55:39.485Z,24.85
2018-03-28T05:56:39.456Z,24.93
2018-03-28T05:57:39.458Z,24.93
2018-03-28T05:58:39.466Z,24.97
2018-03-28T05:59:39.361Z,24.96
2018-03-28T06:00:39.437Z,24.92
2018-03-28T06:01:39.306Z,25.02
2018-03-28T06:02:39.294Z,25.00
2018-03-28T06:03:39.260Z,24.96
2018-03-28T06:04:39.236Z,24.97
2018-03-28T06:05:39.331Z,24.90
2018-03-28T06:06:39.179Z,24.92
2018-03-28T06:07:39.142Z,24.78
2018-03-28T06:08:39.139Z,24.80
2018-03-28T06:09:39.137Z,24.74
2018-03-28T06:10:39.148Z,24.82
2018-03-28T06:11:39.148Z,24.77
2018-03-28T06:12:39.053Z,24.77
2018-03-28T06:13:39.000Z,24.58
2018-03-28T06:14:38.989Z,24.64
2018-03-28T06:15:38.955Z,24.69
2018-03-28T06:16:39.014Z,24.55
2018-03-28T06:17:38.886Z,24.51
2018-03-28T06:18:38.835Z,24.52
2018-03-28T06:19:38.822Z,24.52
2018-03-28T06:20:38.838Z,24.59
2018-03-28T06:21:38.883Z,24.69
2018-03-28T06:22:38.753Z,24.61
2018-03-28T06:23:38.724Z,24.69
2018-03-28T06:24:38.717Z,24.63
2018-03-28T06:25:38.681Z,24.64
2018-03-28T06:26:38.754Z,24.67
2018-03-28T06:27:38.613Z,24.70
2018-03-28T06:28:38.568Z,24.69
2018-03-28T06:29:38.559Z,24.77
2018-03-28T06:30:38.601Z,24.70
2018-03-28T06:31:38.589Z,24.64
2018-03-28T06:32:38.477Z,24.63
2018-03-28T06:33:38.440Z,24.51
2018-03-28T06:34:38.436Z,24.44
2018-03-28T06:35:38.401Z,24.36
2018-03-28T06:36:38.394Z,24.46
2018-03-28T06:37:38.463Z,24.42
2018-03-28T06:38:38.338Z,24.37
2018-03-28T06:39:38.325Z,24.33
2018-03-28T06:40:38.284Z,24.21
2018-03-28T06:41:38.223Z,24.09
2018-03-28T06:42:38.289Z,23.93
2018-03-28T06:43:38.289Z,24.02
2018-03-28T06:44:38.158Z,23.90
2018-03-28T06:45:38.137Z,23.93
2018-03-28T06:46:38.132Z,23.94
2018-03-28T06:47:38.096Z,23.87
2018-03-28T06:48:38.329Z,23.78
2018-03-28T06:49:38.005Z,23.81
2018-03-28T06:50:38.002Z,23.96
2018-03-28T06:51:37.971Z,24.15
2018-03-28T06:52:37.939Z,24.24
2018-03-28T06:53:38.023Z,24.37
2018-03-28T06:54:37.891Z,24.44
2018-03-28T06:55:37.894Z,24.48
2018-03-28T06:56:37.860Z,24.51
2018-03-28T06:57:37.806Z,24.49
2018-03-28T06:58:37.870Z,24.54
2018-03-28T06:59:37.737Z,24.64
2018-03-28T07:00:37.742Z,24.55
2018-03-28T07:01:37.703Z,24.46
2018-03-28T07:02:37.672Z,24.52
2018-03-28T07:03:37.754Z,24.44
2018-03-28T07:04:37.688Z,24.52
2018-03-28T07:05:37.603Z,24.51
2018-03-28T07:06:37.565Z,24.44
2018-03-28T07:07:37.534Z,24.49
2018-03-28T07:08:37.609Z,24.52
2018-03-28T07:09:37.484Z,24.55
2018-03-28T07:10:37.464Z,24.42
2018-03-28T07:11:37.415Z,24.40
2018-03-28T07:12:37.403Z,24.45
2018-03-28T07:13:37.404Z,24.45
2018-03-28T07:14:37.449Z,24.40
2018-03-28T07:15:37.334Z,24.48
2018-03-28T07:16:37.271Z,24.45
2018-03-28T07:17:37.326Z,24.37
2018-03-28T07:18:37.265Z,24.34
2018-03-28T07:19:37.287Z,24.26
2018-03-28T07:20:37.289Z,24.17
2018-03-28T07:21:37.168Z,24.11
2018-03-28T07:22:37.128Z,24.09
2018-03-28T07:23:37.098Z,24.09
2018-03-28T07:24:37.076Z,24.08
2018-03-28T07:25:37.158Z,24.12
2018-03-28T07:26:37.020Z,24.04
2018-03-28T07:27:37.006Z,24.08
2018-03-28T07:28:36.952Z,24.08
2018-03-28T07:29:36.944Z,24.26
2018-03-28T07:30:37.039Z,24.30
2018-03-28T07:31:36.902Z,24.37
2018-03-28T07:32:36.857Z,24.55
2018-03-28T07:33:36.982Z,24.58
2018-03-28T07:34:36.819Z,24.69
2018-03-28T07:35:36.887Z,24.61
2018-03-28T07:36:36.748Z,24.64
2018-03-28T07:37:36.727Z,24.64
2018-03-28T07:38:36.712Z,24.66
2018-03-28T07:39:36.672Z,24.56
2018-03-28T07:40:36.793Z,24.58
2018-03-28T07:41:36.622Z,24.59
2018-03-28T07:42:36.582Z,24.59
2018-03-28T07:43:36.545Z,24.61
2018-03-28T07:44:36.524Z,24.59
2018-03-28T07:45:36.605Z,24.63
2018-03-28T07:46:36.464Z,24.42
2018-03-28T07:47:36.427Z,24.30
2018-03-28T07:48:36.396Z,24.22
2018-03-28T07:49:36.404Z,24.15
2018-03-28T07:50:36.357Z,23.97
2018-03-28T07:51:36.476Z,23.82
2018-03-28T07:52:36.309Z,23.70
2018-03-28T07:53:36.311Z,23.53
2018-03-28T07:54:36.249Z,23.41
2018-03-28T07:55:36.221Z,23.37
2018-03-28T07:56:36.293Z,23.32
2018-03-28T07:57:36.178Z,23.26
2018-03-28T07:58:36.181Z,23.18
2018-03-28T07:59:36.129Z,23.16
2018-03-28T08:00:36.098Z,23.19
2018-03-28T08:01:36.188Z,23.06
2018-03-28T08:02:36.023Z,23.04
2018-03-28T08:03:35.998Z,22.99
2018-03-28T08:04:35.973Z,22.97
2018-03-28T08:05:35.930Z,22.84
2018-03-28T08:06:36.056Z,22.85
2018-03-28T08:07:35.899Z,22.85
2018-03-28T08:08:35.853Z,22.85
2018-03-28T08:09:35.971Z,22.88
2018-03-28T08:10:35.852Z,22.86
2018-03-28T08:11:35.915Z,22.84
2018-03-28T08:12:35.746Z,22.96
2018-03-28T08:13:35.723Z,23.07
2018-03-28T08:14:35.701Z,23.07
2018-03-28T08:15:35.692Z,23.14
2018-03-28T08:16:35.765Z,23.34
2018-03-28T08:17:35.752Z,23.42
2018-03-28T08:18:35.575Z,23.52
2018-03-28T08:19:35.600Z,23.72
2018-03-28T08:20:35.552Z,23.87
2018-03-28T08:21:35.590Z,23.90
2018-03-28T08:22:35.580Z,23.97
2018-03-28T08:23:35.465Z,24.12
2018-03-28T08:24:35.444Z,24.12
2018-03-28T08:25:35.427Z,24.15
2018-03-28T08:26:35.404Z,24.19
2018-03-28T08:27:35.351Z,24.21
2018-03-28T08:28:35.397Z,24.19
2018-03-28T08:29:35.305Z,24.19
2018-03-28T08:30:35.266Z,24.17
2018-03-28T08:31:35.228Z,24.09
2018-03-28T08:32:35.231Z,24.11
2018-03-28T08:33:35.301Z,23.97
2018-03-28T08:34:35.163Z,23.93
2018-03-28T08:35:35.126Z,23.99
2018-03-28T08:36:35.101Z,23.90
2018-03-28T08:37:35.080Z,23.97
2018-03-28T08:38:35.161Z,24.00
2018-03-28T08:39:35.016Z,23.87
2018-03-28T08:40:34.997Z,23.84
2018-03-28T08:41:34.969Z,23.92
2018-03-28T08:42:34.912Z,23.89
2018-03-28T08:43:35.000Z,23.82
2018-03-28T08:44:34.879Z,23.92
2018-03-28T08:45:34.853Z,23.89
2018-03-28T08:46:34.808Z,23.90
2018-03-28T08:47:34.783Z,23.94
2018-03-28T08:48:34.857Z,23.94
2018-03-28T08:49:34.759Z,23.92
2018-03-28T08:50:34.754Z,23.82
2018-03-28T08:51:34.741Z,23.75
2018-03-28T08:52:34.635Z,23.72
2018-03-28T08:53:34.794Z,23.71
2018-03-28T08:54:34.661Z,23.71
2018-03-28T08:55:34.581Z,23.74
2018-03-28T08:56:34.612Z,23.79
2018-03-28T08:57:34.594Z,23.85
2018-03-28T08:58:34.513Z,23.82
2018-03-28T08:59:34.574Z,23.78
2018-03-28T09:00:34.473Z,23.94
2018-03-28T09:01:34.396Z,23.92
2018-03-28T09:02:34.429Z,23.94
2018-03-28T09:03:34.353Z,23.96
2018-03-28T09:04:34.319Z,24.03
2018-03-28T09:05:34.424Z,24.04
2018-03-28T09:06:34.259Z,24.11
2018-03-28T09:07:34.245Z,24.08
2018-03-28T09:08:34.226Z,24.02
2018-03-28T09:09:34.192Z,24.08
2018-03-28T09:10:34.258Z,24.08
2018-03-28T09:11:34.205Z,24.02
2018-03-28T09:12:34.110Z,24.02
2018-03-28T09:13:34.088Z,23.89
2018-03-28T09:14:34.063Z,23.94
2018-03-28T09:15:34.187Z,23.82
2018-03-28T09:16:34.019Z,23.75
2018-03-28T09:17:33.952Z,23.75
2018-03-28T09:18:33.939Z,23.67
2018-03-28T09:19:33.925Z,23.62
2018-03-28T09:20:34.018Z,23.57
2018-03-28T09:21:33.843Z,23.62
2018-03-28T09:22:33.868Z,23.60
2018-03-28T09:23:33.794Z,23.57
2018-03-28T09:24:33.806Z,23.59
2018-03-28T09:25:33.858Z,23.63
2018-03-28T09:26:33.748Z,23.56
2018-03-28T09:27:33.673Z,23.72
2018-03-28T09:28:33.707Z,23.77
2018-03-28T09:29:33.677Z,23.77
2018-03-28T09:30:33.669Z,23.74
2018-03-28T09:31:33.687Z,23.77
2018-03-28T09:32:33.550Z,23.72
2018-03-28T09:33:33.547Z,23.74
2018-03-28T09:34:33.527Z,23.75
2018-03-28T09:35:33.455Z,23.85
2018-03-28T09:36:33.437Z,23.90
2018-03-28T09:37:33.533Z,23.85
2018-03-28T09:38:33.385Z,23.97
2018-03-28T09:39:33.374Z,23.85
2018-03-28T09:40:33.352Z,23.85
2018-03-28T09:41:33.306Z,23.84
2018-03-28T09:42:33.299Z,23.89
2018-03-28T09:43:33.353Z,23.87
2018-03-28T09:44:33.255Z,23.87
2018-03-28T09:45:33.195Z,23.79
2018-03-28T09:46:33.181Z,23.81
2018-03-28T09:47:33.128Z,23.78
2018-03-28T09:48:33.223Z,23.77
2018-03-28T09:49:33.123Z,23.74
2018-03-28T09:50:33.083Z,23.77
2018-03-28T09:51:33.059Z,23.75
2018-03-28T09:52:32.990Z,23.75
2018-03-28T09:53:33.080Z,23.79
2018-03-28T09:54:32.929Z,23.72
2018-03-28T09:55:32.944Z,23.64
2018-03-28T09:56:32.879Z,23.78
2018-03-28T09:57:32.875Z,23.71
2018-03-28T09:58:32.975Z,23.72
2018-03-28T09:59:32.810Z,23.70
2018-03-28T10:00:32.818Z,23.66
2018-03-28T10:01:32.761Z,23.62
2018-03-28T10:02:32.712Z,23.71
2018-03-28T10:03:32.742Z,23.66
2018-03-28T10:04:32.815Z,23.66
2018-03-28T10:05:32.649Z,23.72
2018-03-28T10:06:32.637Z,23.87
2018-03-28T10:07:32.593Z,23.90
2018-03-28T10:08:32.570Z,24.08
2018-03-28T10:09:32.649Z,24.27
2018-03-28T10:10:32.499Z,24.34
2018-03-28T10:11:32.514Z,24.36
2018-03-28T10:12:32.443Z,24.36
2018-03-28T10:13:32.417Z,24.22
2018-03-28T10:14:32.384Z,24.30
2018-03-28T10:15:32.493Z,24.48
2018-03-28T10:16:32.348Z,24.42
2018-03-28T10:17:32.310Z,24.51
2018-03-28T10:18:32.316Z,24.39
2018-03-28T10:19:32.302Z,24.37
2018-03-28T10:20:32.265Z,24.39
2018-03-28T10:21:32.328Z,24.42
2018-03-28T10:22:32.216Z,24.45
2018-03-28T10:23:32.170Z,24.42
2018-03-28T10:24:32.174Z,24.44
2018-03-28T10:25:32.077Z,24.46
2018-03-28T10:26:32.157Z,24.44
2018-03-28T10:27:32.046Z,24.48
2018-03-28T10:28:32.008Z,24.48
2018-03-28T10:29:32.008Z,24.40
2018-03-28T10:30:31.964Z,24.52
2018-03-28T10:31:32.045Z,24.46
2018-03-28T10:32:31.925Z,24.40
2018-03-28T10:33:31.893Z,24.44
2018-03-28T10:34:31.883Z,24.48
2018-03-28T10:35:31.883Z,24.44
2018-03-28T10:36:31.863Z,24.48
2018-03-28T10:37:31.879Z,24.40
2018-03-28T10:38:31.721Z,24.40
2018-03-28T10:39:31.709Z,24.42
2018-03-28T10:40:31.746Z,24.39
2018-03-28T10:41:31.739Z,24.32
2018-03-28T10:42:31.742Z,24.26
2018-03-28T10:43:31.592Z,24.22
2018-03-28T10:44:31.601Z,24.26
2018-03-28T10:45:31.568Z,24.12
2018-03-28T10:46:31.576Z,24.15
2018-03-28T10:47:31.630Z,24.04
2018-03-28T10:48:31.479Z,23.99
2018-03-28T10:49:31.442Z,23.96
2018-03-28T10:50:31.444Z,23.92
2018-03-28T10:51:31.419Z,23.97
2018-03-28T10:52:31.352Z,23.90
2018-03-28T10:53:31.456Z,23.92
2018-03-28T10:54:31.286Z,24.09
2018-03-28T10:55:31.271Z,24.08
2018-03-28T10:56:31.237Z,24.07
2018-03-28T10:57:31.223Z,24.26
2018-03-28T10:58:31.334Z,24.34
2018-03-28T10:59:31.171Z,24.34
2018-03-28T11:00:31.130Z,24.36
2018-03-28T11:01:31.119Z,24.48
2018-03-28T11:02:31.102Z,24.44
2018-03-28T11:03:31.162Z,24.45
2018-03-28T11:04:31.090Z,24.40
2018-03-28T11:05:30.991Z,24.36
2018-03-28T11:06:30.960Z,24.36
2018-03-28T11:07:30.955Z,24.37
2018-03-28T11:08:30.974Z,24.34
2018-03-28T11:09:31.000Z,24.44
2018-03-28T11:10:30.864Z,24.44
2018-03-28T11:11:30.828Z,24.45
2018-03-28T11:12:30.841Z,24.48
2018-03-28T11:13:30.792Z,24.51
2018-03-28T11:14:30.800Z,24.42
2018-03-28T11:15:30.863Z,24.42
2018-03-28T11:16:30.704Z,24.39
2018-03-28T11:17:30.697Z,24.40
2018-03-28T11:18:30.650Z,24.32
2018-03-28T11:19:30.638Z,24.21
2018-03-28T11:20:30.731Z,24.27
2018-03-28T11:21:30.561Z,24.34
2018-03-28T11:22:30.530Z,24.39
2018-03-28T11:23:30.521Z,24.48
2018-03-28T11:24:30.461Z,24.48
2018-03-28T11:25:30.454Z,24.40
2018-03-28T11:26:30.524Z,24.45
2018-03-28T11:27:30.389Z,24.42
2018-03-28T11:28:30.411Z,24.39
2018-03-28T11:29:30.325Z,24.48
2018-03-28T11:30:30.330Z,24.48
2018-03-28T11:31:30.291Z,24.54
2018-03-28T11:32:30.390Z,24.49
2018-03-28T11:33:30.218Z,24.44
2018-03-28T11:34:30.201Z,24.58
2018-03-28T11:35:30.156Z,24.63
2018-03-28T11:36:30.215Z,24.56
2018-03-28T11:37:30.259Z,24.59
2018-03-28T11:38:30.130Z,24.74
2018-03-28T11:39:30.088Z,24.77
2018-03-28T11:40:30.061Z,24.78
2018-03-28T11:41:30.051Z,24.75
2018-03-28T11:42:30.073Z,24.64
2018-03-28T11:43:30.064Z,24.63
2018-03-28T11:44:29.964Z,24.63
2018-03-28T11:45:29.915Z,24.61
2018-03-28T11:46:29.943Z,24.59
2018-03-28T11:47:29.855Z,24.63
2018-03-28T11:48:29.873Z,24.70
2018-03-28T11:49:29.915Z,24.49
2018-03-28T11:50:29.787Z,24.55
2018-03-28T11:51:29.855Z,24.59
2018-03-28T11:52:29.729Z,24.52
2018-03-28T11:53:29.722Z,24.59
2018-03-28T11:54:29.840Z,24.61
2018-03-28T11:55:29.690Z,24.59
2018-03-28T11:56:29.632Z,24.64
2018-03-28T11:57:29.692Z,24.61
2018-03-28T11:58:29.548Z,24.66
2018-03-28T11:59:29.626Z,24.67
2018-03-28T12:00:29.519Z,24.75
2018-03-28T12:01:29.468Z,24.78
2018-03-28T12:02:29.441Z,24.77
2018-03-28T12:03:29.418Z,24.77
2018-03-28T12:04:29.374Z,24.75
2018-03-28T12:05:29.449Z,24.78
2018-03-28T12:06:29.332Z,24.93
2018-03-28T12:07:29.334Z,25.08
2018-03-28T12:08:29.350Z,25.29
2018-03-28T12:09:29.293Z,25.38
2018-03-28T12:10:29.350Z,25.44
2018-03-28T12:11:29.242Z,25.27
2018-03-28T12:12:29.181Z,25.49
2018-03-28T12:13:29.124Z,25.70
2018-03-28T12:14:29.143Z,26.01
2018-03-28T12:15:29.219Z,26.16
2018-03-28T12:16:29.055Z,26.35
2018-03-28T12:17:29.064Z,26.32
2018-03-28T12:18:29.008Z,26.20
2018-03-28T12:19:28.992Z,26.12
2018-03-28T12:20:28.986Z,26.00
2018-03-28T12:21:29.026Z,26.11
2018-03-28T12:22:28.959Z,26.04
2018-03-28T12:23:28.884Z,26.19
2018-03-28T12:24:28.882Z,26.20
2018-03-28T12:25:28.824Z,26.19
2018-03-28T12:26:28.921Z,26.23
2018-03-28T12:27:28.775Z,26.30
2018-03-28T12:28:28.853Z,26.26
2018-03-28T12:29:28.735Z,26.42
2018-03-28T12:30:28.711Z,26.59
2018-03-28T12:31:28.787Z,26.90
2018-03-28T12:32:28.620Z,27.48
2018-03-28T12:33:28.599Z,28.30
2018-03-28T12:34:28.580Z,28.82
2018-03-28T12:35:28.551Z,29.36
2018-03-28T12:36:28.624Z,29.69
2018-03-28T12:37:28.524Z,29.85
2018-03-28T12:38:28.508Z,29.92
2018-03-28T12:39:28.447Z,30.07
2018-03-28T12:40:28.429Z,30.09
2018-03-28T12:41:28.382Z,30.47
2018-03-28T12:42:28.481Z,30.63
2018-03-28T12:43:28.338Z,30.93
2018-03-28T12:44:28.349Z,31.15
2018-03-28T12:45:28.338Z,31.16
2018-03-28T12:46:28.294Z,31.06
2018-03-28T12:47:28.356Z,30.82
2018-03-28T12:48:28.244Z,30.66
2018-03-28T12:49:28.236Z,30.56
2018-03-28T12:50:28.237Z,30.34
2018-03-28T12:51:28.280Z,30.02
2018-03-28T12:52:28.371Z,29.65